Time;durP1;ratioP1;P1;durP2;ratioP2;P2;SDS_P1;SDS_P2;PMS_P1;PMS_P2;Temp;Humidity;BMP_temperature;BMP_pressure;BME280_temperature;BME280_humidity;BME280_pressure;Samples;Min_cycle;Max_cycle;Signal;HPM_P1;HPM_P2
2023/12/23 00:01:15;;;;;;;1.02;0.90;;;7.80;99.90;;;;;;5049548;28;20249;-63
2023/12/23 00:03:44;;;;;;;1.00;0.70;;;7.80;99.90;;;;;;5048494;28;20313;-63
2023/12/23 00:06:11;;;;;;;1.02;0.90;;;7.80;99.90;;;;;;5053416;28;20681;-64
2023/12/23 00:08:38;;;;;;;0.80;0.80;;;7.80;99.90;;;;;;5053380;28;20587;-64
2023/12/23 00:11:05;;;;;;;1.33;0.60;;;7.80;99.90;;;;;;5052771;28;20293;-63
2023/12/23 00:13:32;;;;;;;0.70;0.70;;;7.70;99.90;;;;;;5053010;28;20269;-65
2023/12/23 00:15:59;;;;;;;0.88;0.68;;;7.70;99.90;;;;;;5052622;28;20684;-64
2023/12/23 00:18:26;;;;;;;1.58;0.70;;;7.60;99.90;;;;;;5053072;28;20212;-64
2023/12/23 00:20:54;;;;;;;0.65;0.65;;;7.60;99.90;;;;;;5046742;28;20241;-64
2023/12/23 00:23:21;;;;;;;0.68;0.68;;;7.50;99.90;;;;;;5049370;28;20256;-63
2023/12/23 00:25:48;;;;;;;1.30;0.73;;;7.50;99.90;;;;;;5052906;28;20648;-64
2023/12/23 00:28:15;;;;;;;1.15;1.05;;;7.50;99.90;;;;;;5052768;28;20202;-64
2023/12/23 00:30:42;;;;;;;1.13;0.77;;;7.50;99.90;;;;;;5052977;28;20288;-64
2023/12/23 00:33:09;;;;;;;1.00;0.60;;;7.40;99.90;;;;;;5048981;28;20654;-64
2023/12/23 00:35:36;;;;;;;0.70;0.70;;;7.40;99.90;;;;;;5052920;28;20203;-64
2023/12/23 00:38:07;;;;;;;1.63;0.80;;;7.30;99.90;;;;;;5052584;28;20206;-64
2023/12/23 00:40:34;;;;;;;0.73;0.73;;;7.30;99.90;;;;;;5048935;28;20231;-65
2023/12/23 00:43:01;;;;;;;0.60;0.60;;;7.30;99.90;;;;;;5051573;28;20242;-64
2023/12/23 00:45:28;;;;;;;2.78;0.93;;;7.30;99.90;;;;;;5041016;28;20738;-64
2023/12/23 00:47:54;;;;;;;0.63;0.50;;;7.20;99.90;;;;;;5051652;28;20233;-64
2023/12/23 00:50:21;;;;;;;1.75;0.80;;;7.20;99.90;;;;;;5045709;28;20217;-64
2023/12/23 00:52:48;;;;;;;0.70;0.70;;;7.20;99.90;;;;;;5052716;28;20219;-64
2023/12/23 00:55:17;;;;;;;0.95;0.95;;;7.10;99.90;;;;;;5052376;28;20206;-64
2023/12/23 00:57:44;;;;;;;0.68;0.68;;;7.10;99.90;;;;;;5052352;28;20213;-64
2023/12/23 01:00:11;;;;;;;0.77;0.77;;;7.10;99.90;;;;;;5052064;28;20661;-64
2023/12/23 01:02:38;;;;;;;0.63;0.63;;;7.10;99.90;;;;;;5052453;28;20218;-64
2023/12/23 01:05:06;;;;;;;0.70;0.70;;;7.10;99.90;;;;;;5051074;28;20598;-64
2023/12/23 01:07:32;;;;;;;0.68;0.68;;;7.10;99.90;;;;;;5045828;28;20241;-64
2023/12/23 01:09:59;;;;;;;1.13;0.80;;;7.00;99.90;;;;;;5052053;28;20209;-64
2023/12/23 01:12:27;;;;;;;0.50;0.50;;;7.10;99.90;;;;;;5052029;28;20222;-63
2023/12/23 01:14:54;;;;;;;0.55;0.50;;;7.10;99.90;;;;;;5052155;28;20206;-65
2023/12/23 01:17:21;;;;;;;3.03;1.08;;;7.00;99.90;;;;;;5050112;28;20202;-64
2023/12/23 01:19:48;;;;;;;1.35;0.85;;;7.00;99.90;;;;;;5051781;28;20198;-64
2023/12/23 01:22:15;;;;;;;0.63;0.50;;;7.00;99.90;;;;;;5051741;28;20238;-64
2023/12/23 01:24:42;;;;;;;0.77;0.75;;;7.00;99.90;;;;;;5052029;28;20289;-65
2023/12/23 01:27:08;;;;;;;0.60;0.50;;;7.00;99.90;;;;;;5052054;28;20207;-64
2023/12/23 01:29:37;;;;;;;6.10;1.10;;;7.00;99.90;;;;;;5051720;28;20202;-63
2023/12/23 01:32:04;;;;;;;1.48;0.68;;;6.90;99.90;;;;;;5051864;28;20229;-64
2023/12/23 01:34:31;;;;;;;1.30;0.68;;;7.00;99.90;;;;;;5051990;28;20297;-63
2023/12/23 01:36:58;;;;;;;1.20;0.80;;;7.00;99.90;;;;;;5048538;28;20305;-65
2023/12/23 01:39:24;;;;;;;0.65;0.65;;;6.90;99.90;;;;;;5043494;28;20206;-64
2023/12/23 01:41:51;;;;;;;2.00;0.90;;;7.00;99.90;;;;;;5051738;28;20583;-64
2023/12/23 01:44:18;;;;;;;1.27;1.27;;;7.00;99.90;;;;;;5051909;28;20226;-63
2023/12/23 01:46:47;;;;;;;1.25;0.80;;;6.90;99.90;;;;;;5051441;28;20232;-63
2023/12/23 01:49:14;;;;;;;2.10;0.80;;;7.00;99.90;;;;;;5051321;28;20294;-63
2023/12/23 01:51:41;;;;;;;0.93;0.50;;;6.90;99.90;;;;;;5051168;28;20233;-63
2023/12/23 01:54:08;;;;;;;1.08;0.70;;;6.90;99.90;;;;;;5051229;28;20329;-63
2023/12/23 01:56:35;;;;;;;0.57;0.57;;;6.90;99.90;;;;;;5051553;28;20210;-64
2023/12/23 01:59:03;;;;;;;1.17;0.50;;;6.90;99.90;;;;;;5050456;28;20241;-64
2023/12/23 02:01:32;;;;;;;0.60;0.60;;;6.80;99.90;;;;;;5047742;28;20305;-63
2023/12/23 02:04:00;;;;;;;0.77;0.77;;;6.80;99.90;;;;;;5050342;28;20202;-64
2023/12/23 02:06:27;;;;;;;2.33;0.88;;;6.80;99.90;;;;;;5051442;28;20293;-64
2023/12/23 02:08:54;;;;;;;1.05;0.50;;;6.80;99.90;;;;;;5049041;28;20210;-64
2023/12/23 02:11:29;;;;;;;0.40;0.40;;;6.80;99.90;;;;;;5049021;28;20202;-64
2023/12/23 02:14:01;;;;;;;0.80;0.60;;;6.80;99.90;;;;;;5051659;28;20210;-63
2023/12/23 02:16:29;;;;;;;0.77;0.60;;;6.80;99.90;;;;;;5051509;28;20230;-64
2023/12/23 02:18:56;;;;;;;1.48;0.70;;;6.80;99.90;;;;;;5051143;28;20209;-64
2023/12/23 02:21:24;;;;;;;0.77;0.77;;;6.80;99.90;;;;;;5051331;28;20257;-64
2023/12/23 02:23:51;;;;;;;0.40;0.40;;;6.80;99.90;;;;;;5051571;28;20224;-64
2023/12/23 02:26:20;;;;;;;0.65;0.63;;;6.80;99.90;;;;;;5051063;28;20206;-64
2023/12/23 02:28:51;;;;;;;0.60;0.60;;;6.80;99.90;;;;;;5051209;28;20281;-64
2023/12/23 02:31:19;;;;;;;1.45;0.80;;;6.80;99.90;;;;;;5051765;28;20210;-64
2023/12/23 02:33:47;;;;;;;0.40;0.38;;;6.90;99.90;;;;;;5050404;28;20203;-64
2023/12/23 02:36:14;;;;;;;0.75;0.38;;;6.90;99.90;;;;;;5051916;28;20206;-64
2023/12/23 02:38:42;;;;;;;2.17;0.85;;;6.90;99.90;;;;;;5051537;28;20556;-64
2023/12/23 02:41:09;;;;;;;0.40;0.40;;;6.80;99.90;;;;;;5051639;28;20223;-63
2023/12/23 02:43:35;;;;;;;0.73;0.40;;;6.90;99.90;;;;;;5051368;28;20261;-64
2023/12/23 02:46:02;;;;;;;0.50;0.50;;;6.90;99.90;;;;;;5051396;28;20209;-63
2023/12/23 02:48:29;;;;;;;3.22;0.93;;;6.90;99.90;;;;;;5051147;28;20226;-64
2023/12/23 02:50:56;;;;;;;0.70;0.50;;;6.90;99.90;;;;;;5051494;28;20913;-64
2023/12/23 02:53:22;;;;;;;0.60;0.60;;;6.90;99.90;;;;;;5051631;28;20232;-63
2023/12/23 02:55:50;;;;;;;0.50;0.50;;;6.90;99.90;;;;;;5051641;28;20646;-64
2023/12/23 02:58:17;;;;;;;1.23;0.70;;;6.90;99.90;;;;;;5051269;28;20449;-64
2023/12/23 03:00:43;;;;;;;2.50;0.55;;;7.00;99.90;;;;;;5051365;28;20297;-63
2023/12/23 03:03:10;;;;;;;1.85;0.50;;;7.00;99.90;;;;;;5051261;28;20636;-63
2023/12/23 03:05:37;;;;;;;0.50;0.47;;;7.00;99.90;;;;;;5051326;28;20210;-64
2023/12/23 03:08:04;;;;;;;0.85;0.55;;;7.00;99.90;;;;;;5051142;28;20224;-64
2023/12/23 03:10:31;;;;;;;0.82;0.80;;;6.90;99.90;;;;;;5051489;28;20298;-64
2023/12/23 03:12:59;;;;;;;1.05;0.52;;;7.00;99.90;;;;;;5051267;28;20237;-63
2023/12/23 03:15:26;;;;;;;1.30;0.60;;;7.00;99.90;;;;;;5051255;28;20826;-64
2023/12/23 03:17:54;;;;;;;1.20;0.32;;;7.00;99.90;;;;;;5051473;28;20212;-65
2023/12/23 03:20:22;;;;;;;0.50;0.40;;;6.90;99.90;;;;;;5051256;28;20206;-63
2023/12/23 03:22:49;;;;;;;3.05;0.60;;;7.00;99.90;;;;;;5051146;28;20226;-63
2023/12/23 03:25:16;;;;;;;1.70;0.40;;;7.00;99.90;;;;;;5051311;28;20218;-64
2023/12/23 03:27:43;;;;;;;2.70;0.63;;;6.90;99.90;;;;;;5051038;28;20301;-62
2023/12/23 03:30:12;;;;;;;0.55;0.52;;;6.90;99.90;;;;;;5051126;28;20217;-63
2023/12/23 03:32:39;;;;;;;0.57;0.40;;;6.90;99.90;;;;;;5051215;28;20246;-63
2023/12/23 03:35:06;;;;;;;1.25;0.50;;;6.90;99.90;;;;;;5051268;28;20207;-63
2023/12/23 03:37:33;;;;;;;1.58;0.50;;;6.90;99.90;;;;;;5051185;28;20566;-64
2023/12/23 03:40:00;;;;;;;0.52;0.52;;;6.90;99.90;;;;;;5052970;28;20210;-64
2023/12/23 03:42:26;;;;;;;0.70;0.70;;;6.90;99.90;;;;;;5054499;28;20728;-64
2023/12/23 03:44:53;;;;;;;1.25;0.60;;;6.90;99.90;;;;;;5055091;28;20206;-63
2023/12/23 03:47:21;;;;;;;0.40;0.40;;;6.90;99.90;;;;;;5054784;28;20217;-64
2023/12/23 03:49:48;;;;;;;1.35;0.38;;;6.90;99.90;;;;;;5054835;28;20293;-64
2023/12/23 03:52:15;;;;;;;0.40;0.40;;;6.90;99.90;;;;;;5054702;28;20226;-64
2023/12/23 03:54:42;;;;;;;0.50;0.50;;;6.90;99.90;;;;;;5054679;28;20202;-64
2023/12/23 03:57:08;;;;;;;0.40;0.40;;;6.90;99.90;;;;;;5054639;28;20206;-64
2023/12/23 03:59:35;;;;;;;0.73;0.40;;;6.90;99.90;;;;;;5054385;28;20216;-63
2023/12/23 04:02:03;;;;;;;1.05;0.60;;;7.00;99.90;;;;;;5053454;28;20230;-63
2023/12/23 04:04:31;;;;;;;1.15;1.05;;;6.90;99.90;;;;;;5054566;28;20234;-64
2023/12/23 04:06:58;;;;;;;2.05;0.65;;;6.90;99.90;;;;;;5053553;28;20199;-65
2023/12/23 04:09:24;;;;;;;1.05;0.40;;;6.90;99.90;;;;;;5054071;28;20199;-63
2023/12/23 04:11:52;;;;;;;0.88;0.63;;;6.90;99.90;;;;;;5053972;28;20676;-64
2023/12/23 04:14:19;;;;;;;2.20;0.88;;;6.90;99.90;;;;;;5054348;28;20214;-64
2023/12/23 04:16:45;;;;;;;0.60;0.50;;;6.90;99.90;;;;;;5054184;28;20211;-64
2023/12/23 04:19:12;;;;;;;0.90;0.70;;;6.90;99.90;;;;;;5054143;28;20290;-65
2023/12/23 04:21:40;;;;;;;0.75;0.68;;;6.90;99.90;;;;;;5054247;28;20737;-65
2023/12/23 04:24:08;;;;;;;0.43;0.28;;;6.90;99.90;;;;;;5053937;28;20206;-65
2023/12/23 04:26:35;;;;;;;2.05;0.82;;;6.90;99.90;;;;;;5054212;28;20577;-65
2023/12/23 04:29:02;;;;;;;0.40;0.40;;;6.90;99.90;;;;;;5054120;28;20297;-65
2023/12/23 04:31:28;;;;;;;0.60;0.50;;;7.00;99.90;;;;;;5054147;28;20300;-65
2023/12/23 04:33:55;;;;;;;1.50;0.65;;;7.00;99.90;;;;;;5053988;28;20677;-65
2023/12/23 04:36:23;;;;;;;0.50;0.50;;;7.00;99.90;;;;;;5053759;28;20201;-65
2023/12/23 04:38:51;;;;;;;0.70;0.60;;;7.00;99.90;;;;;;5052544;28;20260;-65
2023/12/23 04:41:18;;;;;;;1.00;1.00;;;7.00;99.90;;;;;;5053835;28;20309;-65
2023/12/23 04:43:44;;;;;;;3.17;1.10;;;7.00;99.90;;;;;;5053977;28;20265;-65
2023/12/23 04:46:11;;;;;;;1.13;1.13;;;7.00;99.90;;;;;;5053941;28;20644;-65
2023/12/23 04:48:38;;;;;;;0.68;0.68;;;7.00;99.90;;;;;;5053525;28;20260;-65
2023/12/23 04:51:05;;;;;;;0.90;0.90;;;7.00;99.90;;;;;;5052678;28;20221;-65
2023/12/23 04:53:32;;;;;;;1.00;0.90;;;6.90;99.90;;;;;;5053698;28;20493;-65
2023/12/23 04:56:00;;;;;;;1.25;1.02;;;7.00;99.90;;;;;;5053567;28;20206;-65
2023/12/23 04:58:27;;;;;;;2.45;1.00;;;7.00;99.90;;;;;;5053255;28;20222;-65
2023/12/23 05:00:54;;;;;;;1.13;1.13;;;7.00;99.90;;;;;;5053756;28;20203;-65
2023/12/23 05:03:21;;;;;;;4.30;1.10;;;7.00;99.90;;;;;;5053518;28;20234;-65
2023/12/23 05:05:48;;;;;;;1.20;1.10;;;7.00;99.90;;;;;;5053519;28;20648;-65
2023/12/23 05:08:16;;;;;;;1.92;1.05;;;7.00;99.90;;;;;;5053201;28;20210;-65
2023/12/23 05:10:43;;;;;;;1.73;1.63;;;7.00;99.90;;;;;;5053357;28;20210;-65
2023/12/23 05:13:12;;;;;;;3.28;1.50;;;7.10;99.90;;;;;;5053157;28;20234;-64
2023/12/23 05:15:39;;;;;;;1.80;1.70;;;7.10;99.90;;;;;;5053293;28;20798;-65
2023/12/23 05:18:06;;;;;;;3.75;1.70;;;7.20;99.90;;;;;;5052937;28;20217;-65
2023/12/23 05:20:33;;;;;;;6.72;2.08;;;7.20;99.90;;;;;;5053288;28;20571;-64
2023/12/23 05:23:00;;;;;;;2.28;2.03;;;7.20;99.90;;;;;;5052905;28;20230;-64
2023/12/23 05:25:27;;;;;;;5.13;2.50;;;7.20;99.90;;;;;;5053071;28;20206;-65
2023/12/23 05:27:54;;;;;;;2.80;2.10;;;7.30;99.90;;;;;;5053095;28;20210;-64
2023/12/23 05:30:22;;;;;;;6.68;2.22;;;7.30;99.90;;;;;;5052967;28;20213;-64
2023/12/23 05:32:49;;;;;;;3.42;1.80;;;7.30;99.90;;;;;;5052957;28;20222;-65
2023/12/23 05:35:16;;;;;;;4.75;2.38;;;7.40;99.90;;;;;;5052865;28;20711;-64
2023/12/23 05:37:43;;;;;;;4.45;2.30;;;7.40;99.90;;;;;;5052739;28;20238;-64
2023/12/23 05:40:11;;;;;;;8.35;2.30;;;7.50;99.90;;;;;;5052828;28;20210;-65
2023/12/23 05:42:38;;;;;;;2.15;1.95;;;7.50;99.90;;;;;;5052843;28;20675;-64
2023/12/23 05:45:05;;;;;;;2.78;2.20;;;7.50;99.90;;;;;;5052817;28;20299;-65
2023/12/23 05:47:34;;;;;;;3.10;2.33;;;7.50;99.90;;;;;;5052793;28;20214;-64
2023/12/23 05:50:00;;;;;;;2.30;1.85;;;7.60;99.90;;;;;;5052383;28;20203;-65
2023/12/23 05:52:27;;;;;;;2.63;2.00;;;7.60;99.90;;;;;;5052476;28;20222;-64
2023/12/23 05:54:54;;;;;;;3.10;2.03;;;7.60;99.90;;;;;;5052512;28;20206;-64
2023/12/23 05:57:21;;;;;;;2.10;1.90;;;7.60;99.90;;;;;;5052531;28;20302;-65
2023/12/23 05:59:49;;;;;;;3.17;2.88;;;7.60;99.90;;;;;;5052345;28;20214;-65
2023/12/23 06:02:15;;;;;;;2.33;1.98;;;7.60;99.90;;;;;;5052070;28;20237;-65
2023/12/23 06:04:44;;;;;;;3.25;2.25;;;7.60;99.90;;;;;;5052252;28;20241;-65
2023/12/23 06:07:10;;;;;;;1.90;1.80;;;7.60;99.90;;;;;;5052473;28;20245;-64
2023/12/23 06:09:38;;;;;;;4.85;1.73;;;7.60;99.90;;;;;;5052274;28;20206;-64
2023/12/23 06:12:05;;;;;;;5.43;1.80;;;7.70;99.90;;;;;;5077551;22;20846;-72
2023/12/23 06:14:32;;;;;;;1.92;1.80;;;7.70;99.90;;;;;;5050327;28;20314;-71
2023/12/23 06:16:58;;;;;;;3.33;1.77;;;7.60;99.90;;;;;;5052296;28;20633;-73
2023/12/23 06:19:25;;;;;;;2.72;2.00;;;7.70;99.90;;;;;;5051926;28;20249;-72
2023/12/23 06:21:53;;;;;;;4.05;2.58;;;7.60;99.90;;;;;;5051995;28;20213;-72
2023/12/23 06:24:20;;;;;;;1.30;1.20;;;7.60;99.90;;;;;;5051959;28;20254;-72
2023/12/23 06:26:47;;;;;;;3.72;1.60;;;7.70;99.90;;;;;;5051787;28;20212;-72
2023/12/23 06:29:14;;;;;;;2.67;2.47;;;7.70;99.90;;;;;;5051768;28;20703;-71
2023/12/23 06:31:41;;;;;;;2.25;0.98;;;7.70;99.90;;;;;;5051853;28;20297;-72
2023/12/23 06:34:08;;;;;;;3.55;2.38;;;7.70;99.90;;;;;;5051786;28;20218;-72
2023/12/23 06:36:34;;;;;;;2.15;1.95;;;7.70;99.90;;;;;;5051882;28;20304;-72
2023/12/23 06:39:03;;;;;;;1.45;1.35;;;7.70;99.90;;;;;;5051622;28;20202;-72
2023/12/23 06:41:30;;;;;;;3.47;1.40;;;7.70;99.90;;;;;;5051635;28;20218;-72
2023/12/23 06:43:57;;;;;;;0.90;0.90;;;7.80;99.90;;;;;;5051784;28;20284;-71
2023/12/23 06:46:24;;;;;;;1.65;1.55;;;7.80;99.90;;;;;;5051843;28;20241;-72
2023/12/23 06:48:52;;;;;;;1.70;0.95;;;7.80;99.90;;;;;;5051453;28;20212;-71
2023/12/23 06:51:19;;;;;;;2.05;1.10;;;7.90;99.90;;;;;;5051688;28;20210;-72
2023/12/23 06:53:47;;;;;;;2.00;0.90;;;7.80;99.90;;;;;;5051539;28;20599;-72
2023/12/23 06:56:15;;;;;;;0.80;0.80;;;7.80;99.90;;;;;;5051476;28;20210;-72
2023/12/23 06:58:44;;;;;;;5.75;1.10;;;7.80;99.90;;;;;;5051494;28;20604;-71
2023/12/23 07:01:10;;;;;;;1.50;1.33;;;7.80;99.90;;;;;;5051681;28;20294;-72
2023/12/23 07:03:37;;;;;;;1.80;1.20;;;7.80;99.90;;;;;;5051416;28;20234;-72
2023/12/23 07:06:04;;;;;;;1.30;1.20;;;7.80;99.90;;;;;;5051414;28;20206;-71
2023/12/23 07:08:33;;;;;;;4.25;1.35;;;7.90;99.90;;;;;;5051088;28;20232;-71
2023/12/23 07:11:00;;;;;;;1.85;1.10;;;7.90;99.90;;;;;;5051591;28;20665;-71
2023/12/23 07:13:29;;;;;;;3.60;1.27;;;7.80;99.90;;;;;;5051341;28;20261;-71
2023/12/23 07:15:56;;;;;;;2.53;2.05;;;7.90;99.90;;;;;;5055274;28;20297;-71
2023/12/23 07:18:22;;;;;;;2.42;2.30;;;7.80;99.90;;;;;;5047615;28;20289;-72
2023/12/23 07:20:49;;;;;;;1.52;1.33;;;7.90;99.90;;;;;;5035474;28;20587;-71
2023/12/23 07:23:16;;;;;;;1.23;1.13;;;7.80;99.90;;;;;;5035296;28;20222;-72
2023/12/23 07:25:43;;;;;;;1.77;1.60;;;7.90;99.90;;;;;;5035543;28;20207;-71
2023/12/23 07:28:10;;;;;;;1.90;1.80;;;7.90;99.90;;;;;;5035278;28;20357;-71
2023/12/23 07:30:44;;;;;;;2.03;1.63;;;7.90;99.90;;;;;;5035437;28;20203;-70
2023/12/23 07:33:11;;;;;;;1.20;1.08;;;7.90;99.90;;;;;;5035275;28;20318;-72
2023/12/23 07:35:38;;;;;;;2.25;2.15;;;7.90;99.90;;;;;;5035117;28;20301;-71
2023/12/23 07:38:05;;;;;;;5.03;1.30;;;7.90;99.90;;;;;;5035114;28;20302;-71
2023/12/23 07:40:32;;;;;;;2.58;1.42;;;7.90;99.90;;;;;;5035228;28;20207;-71
2023/12/23 07:42:59;;;;;;;2.33;1.70;;;7.90;99.90;;;;;;5035069;28;20231;-71
2023/12/23 07:45:26;;;;;;;4.30;1.70;;;7.90;99.90;;;;;;5034538;28;20210;-71
2023/12/23 07:47:54;;;;;;;2.38;1.95;;;7.90;99.90;;;;;;5034972;28;20293;-72
2023/12/23 07:50:22;;;;;;;2.47;1.50;;;7.90;99.90;;;;;;5035230;28;20293;-71
2023/12/23 07:52:49;;;;;;;5.05;1.98;;;7.90;99.90;;;;;;5035070;28;20314;-72
2023/12/23 07:55:16;;;;;;;1.75;1.65;;;7.90;99.90;;;;;;5034971;28;20565;-71
2023/12/23 07:57:43;;;;;;;2.00;1.80;;;7.90;99.90;;;;;;5034942;28;20661;-72
2023/12/23 08:00:11;;;;;;;1.60;1.50;;;7.90;99.90;;;;;;5034621;28;20217;-72
2023/12/23 08:02:38;;;;;;;2.47;2.03;;;7.90;99.90;;;;;;5034488;28;20237;-71
2023/12/23 08:05:07;;;;;;;6.57;1.67;;;7.90;99.90;;;;;;5034687;28;20207;-72
2023/12/23 08:07:33;;;;;;;1.98;1.88;;;7.80;99.90;;;;;;5029519;28;20207;-72
2023/12/23 08:10:00;;;;;;;2.90;2.70;;;7.90;99.90;;;;;;5020850;28;20612;-71
2023/12/23 08:12:26;;;;;;;3.03;1.88;;;7.90;99.90;;;;;;5014299;28;20241;-71
2023/12/23 08:14:53;;;;;;;2.60;2.40;;;7.90;99.90;;;;;;5014624;28;20302;-72
2023/12/23 08:17:20;;;;;;;5.18;2.25;;;7.90;99.90;;;;;;5014265;28;20204;-71
2023/12/23 08:19:46;;;;;;;1.92;1.60;;;7.90;99.90;;;;;;5014521;28;20303;-71
2023/12/23 08:22:15;;;;;;;1.73;1.63;;;7.90;99.90;;;;;;5014401;28;20682;-71
2023/12/23 08:24:41;;;;;;;2.40;2.10;;;7.90;99.90;;;;;;5016179;28;20230;-71
2023/12/23 08:27:08;;;;;;;5.55;2.03;;;7.90;99.90;;;;;;5023728;28;20222;-70
2023/12/23 08:29:35;;;;;;;1.70;1.60;;;7.90;99.90;;;;;;5026625;28;20295;-71
2023/12/23 08:32:02;;;;;;;3.30;2.08;;;7.90;99.90;;;;;;5030072;28;20235;-70
2023/12/23 08:34:29;;;;;;;5.72;1.95;;;7.90;99.90;;;;;;5034171;28;20207;-70
2023/12/23 08:36:56;;;;;;;2.95;2.80;;;8.00;99.90;;;;;;5034115;28;20211;-69
2023/12/23 08:39:24;;;;;;;4.68;2.35;;;8.00;99.90;;;;;;5033549;28;20235;-70
2023/12/23 08:41:51;;;;;;;1.70;1.60;;;8.00;99.90;;;;;;5020209;28;20761;-70
2023/12/23 08:44:21;;;;;;;2.03;1.92;;;7.90;99.90;;;;;;5031901;28;20309;-71
2023/12/23 08:46:47;;;;;;;2.20;2.00;;;8.00;99.90;;;;;;5033984;28;20617;-70
2023/12/23 08:49:14;;;;;;;3.15;1.90;;;8.00;99.90;;;;;;5033432;28;20677;-71
2023/12/23 08:51:41;;;;;;;2.30;2.20;;;8.00;99.90;;;;;;5033411;28;20294;-70
2023/12/23 08:54:08;;;;;;;1.40;1.33;;;8.00;99.90;;;;;;5033585;28;20245;-71
2023/12/23 08:56:36;;;;;;;2.05;1.55;;;7.90;99.90;;;;;;5033065;28;20650;-70
2023/12/23 08:59:03;;;;;;;3.80;2.13;;;7.90;99.90;;;;;;5033244;28;20207;-70
2023/12/23 09:01:30;;;;;;;2.58;2.00;;;7.90;99.90;;;;;;5033561;28;20203;-71
2023/12/23 09:03:57;;;;;;;1.38;1.27;;;7.90;99.90;;;;;;5033167;28;20245;-69
2023/12/23 09:06:24;;;;;;;3.25;2.53;;;7.90;99.90;;;;;;5033069;28;20203;-70
2023/12/23 09:08:51;;;;;;;2.17;2.08;;;7.90;99.90;;;;;;5033175;28;20199;-71
2023/12/23 09:11:18;;;;;;;3.00;2.05;;;7.90;99.90;;;;;;5034036;28;20235;-70
2023/12/23 09:13:46;;;;;;;3.58;1.50;;;7.90;99.90;;;;;;5031280;28;20769;-70
2023/12/23 09:16:13;;;;;;;2.45;1.33;;;8.00;99.90;;;;;;5029901;28;20866;-69
2023/12/23 09:18:39;;;;;;;2.15;1.75;;;7.90;99.90;;;;;;5027620;28;20289;-70
2023/12/23 09:21:06;;;;;;;1.73;1.25;;;7.90;99.90;;;;;;5033949;28;20682;-70
2023/12/23 09:23:33;;;;;;;2.50;1.50;;;7.90;99.90;;;;;;5032210;28;20230;-70
2023/12/23 09:26:00;;;;;;;3.80;2.28;;;7.90;99.90;;;;;;5036070;28;20277;-70
2023/12/23 09:28:27;;;;;;;4.55;1.83;;;8.00;99.90;;;;;;5032588;28;20200;-70
2023/12/23 09:30:55;;;;;;;2.83;1.35;;;8.00;99.90;;;;;;5032768;28;20206;-71
2023/12/23 09:33:22;;;;;;;1.70;1.60;;;8.00;99.90;;;;;;5032827;28;20309;-70
2023/12/23 09:35:49;;;;;;;2.70;2.60;;;8.00;99.90;;;;;;5028622;28;20203;-70
2023/12/23 09:38:15;;;;;;;3.00;1.77;;;8.00;99.90;;;;;;5032204;28;20294;-69
2023/12/23 09:40:42;;;;;;;3.13;1.90;;;8.00;99.90;;;;;;5031073;28;20222;-70
2023/12/23 09:43:09;;;;;;;2.67;2.47;;;8.00;99.90;;;;;;5034213;28;20313;-70
2023/12/23 09:45:37;;;;;;;2.25;2.00;;;8.10;99.90;;;;;;5032332;28;20239;-70
2023/12/23 09:48:06;;;;;;;1.10;1.00;;;8.10;99.90;;;;;;5031843;28;20659;-69
2023/12/23 09:50:33;;;;;;;1.65;1.08;;;8.10;99.90;;;;;;5030997;28;20840;-70
2023/12/23 09:53:01;;;;;;;2.30;1.35;;;8.10;99.90;;;;;;5028451;28;20229;-70
2023/12/23 09:55:31;;;;;;;2.30;1.15;;;8.10;99.90;;;;;;5024684;28;20619;-69
2023/12/23 09:57:58;;;;;;;3.50;2.25;;;8.10;99.90;;;;;;5019860;28;20210;-69
2023/12/23 10:00:25;;;;;;;1.02;1.02;;;8.20;99.90;;;;;;5022144;28;20205;-70
2023/12/23 10:02:52;;;;;;;2.67;1.90;;;8.20;99.90;;;;;;5032436;28;21556;-69
2023/12/23 10:05:20;;;;;;;1.25;1.15;;;8.20;99.90;;;;;;5035235;28;20228;-69
2023/12/23 10:07:47;;;;;;;1.73;1.23;;;8.30;99.90;;;;;;5031185;28;20203;-70
2023/12/23 10:10:15;;;;;;;0.63;0.63;;;8.30;99.90;;;;;;5034157;28;20229;-69
2023/12/23 10:12:41;;;;;;;1.60;1.02;;;8.30;99.90;;;;;;5029550;28;20239;-69
2023/12/23 10:15:08;;;;;;;0.90;0.90;;;8.40;99.90;;;;;;5025517;28;20196;-69
2023/12/23 10:17:36;;;;;;;2.55;1.95;;;8.30;99.90;;;;;;5042048;28;20206;-69
2023/12/23 10:20:04;;;;;;;4.38;2.08;;;8.40;99.90;;;;;;5032478;28;20294;-68
2023/12/23 10:22:32;;;;;;;1.40;1.30;;;8.40;99.90;;;;;;5034474;28;20223;-69
2023/12/23 10:25:00;;;;;;;1.35;1.17;;;8.40;99.90;;;;;;5039225;28;20227;-69
2023/12/23 10:27:28;;;;;;;1.20;0.93;;;8.30;99.90;;;;;;5034673;28;20309;-70
2023/12/23 10:29:59;;;;;;;1.20;1.10;;;8.40;99.90;;;;;;5040543;28;20635;-70
2023/12/23 10:32:28;;;;;;;1.05;1.05;;;8.40;99.90;;;;;;5033811;28;20306;-69
2023/12/23 10:35:00;;;;;;;1.15;0.80;;;8.40;99.90;;;;;;5035531;28;20657;-70
2023/12/23 10:37:28;;;;;;;3.38;0.90;;;8.40;99.90;;;;;;5042045;28;20215;-70
2023/12/23 10:40:02;;;;;;;0.80;0.80;;;8.40;99.90;;;;;;5042496;28;20574;-68
2023/12/23 10:42:31;;;;;;;0.98;0.98;;;8.40;99.90;;;;;;5032271;28;20312;-69
2023/12/23 10:45:00;;;;;;;0.75;0.75;;;8.40;99.90;;;;;;5039444;28;20211;-69
2023/12/23 10:47:29;;;;;;;1.10;0.93;;;8.50;99.90;;;;;;5027377;28;20211;-68
2023/12/23 10:49:56;;;;;;;0.88;0.88;;;8.50;99.90;;;;;;5035881;28;20214;-68
2023/12/23 10:52:24;;;;;;;0.80;0.80;;;8.50;99.90;;;;;;5039079;28;20226;-69
2023/12/23 10:54:52;;;;;;;2.20;1.67;;;8.50;99.90;;;;;;5039599;28;20286;-68
2023/12/23 10:57:21;;;;;;;0.98;0.98;;;8.50;99.90;;;;;;5031066;28;20590;-69
2023/12/23 10:59:48;;;;;;;1.20;1.10;;;8.50;99.90;;;;;;5032608;28;20205;-68
2023/12/23 11:02:19;;;;;;;1.55;0.80;;;8.50;99.90;;;;;;5029481;28;20203;-68
2023/12/23 11:04:50;;;;;;;0.73;0.70;;;8.50;99.90;;;;;;5030181;28;20321;-70
2023/12/23 11:07:19;;;;;;;2.25;0.90;;;8.50;99.90;;;;;;5028722;28;20591;-69
2023/12/23 11:09:50;;;;;;;1.23;1.13;;;8.40;99.90;;;;;;5021969;28;20300;-69
2023/12/23 11:12:18;;;;;;;0.70;0.70;;;8.50;99.90;;;;;;5021091;28;20286;-69
2023/12/23 11:14:47;;;;;;;2.92;2.25;;;8.50;99.90;;;;;;5030845;28;20199;-69
2023/12/23 11:17:32;;;;;;;0.43;0.43;;;8.60;99.90;;;;;;5030408;28;20218;-68
2023/12/23 11:20:00;;;;;;;0.70;0.70;;;8.60;99.90;;;;;;5030156;28;20206;-69
2023/12/23 11:22:29;;;;;;;0.52;0.52;;;8.60;99.90;;;;;;5028219;28;20241;-68
2023/12/23 11:24:56;;;;;;;1.95;1.02;;;8.60;99.90;;;;;;5029565;28;20250;-69
2023/12/23 11:27:33;;;;;;;0.77;0.73;;;8.70;99.90;;;;;;5030242;28;20313;-69
2023/12/23 11:30:03;;;;;;;0.63;0.63;;;8.70;99.90;;;;;;5030123;28;20209;-69
2023/12/23 11:32:36;;;;;;;0.77;0.75;;;8.70;99.90;;;;;;5029483;28;20281;-69
2023/12/23 11:35:05;;;;;;;0.70;0.70;;;8.70;99.90;;;;;;5029970;28;20211;-69
2023/12/23 11:37:47;;;;;;;1.13;1.13;;;8.70;99.90;;;;;;5030264;28;20298;-69
2023/12/23 11:40:15;;;;;;;0.60;0.60;;;8.70;99.90;;;;;;5029734;28;20207;-68
2023/12/23 11:42:42;;;;;;;0.50;0.50;;;8.80;99.90;;;;;;5030143;28;20227;-68
2023/12/23 11:45:11;;;;;;;0.93;0.93;;;8.80;99.90;;;;;;5029781;28;20716;-68
2023/12/23 11:47:38;;;;;;;0.98;0.63;;;8.80;99.90;;;;;;5029818;28;20282;-68
2023/12/23 11:50:06;;;;;;;1.25;0.85;;;8.80;99.90;;;;;;5026857;28;20215;-68
2023/12/23 11:52:33;;;;;;;0.73;0.73;;;8.80;99.90;;;;;;5028731;28;20310;-68
2023/12/23 11:55:00;;;;;;;1.27;0.77;;;8.90;99.90;;;;;;5020509;28;20199;-68
2023/12/23 11:57:28;;;;;;;0.43;0.43;;;8.80;99.90;;;;;;5030063;28;20302;-68
2023/12/23 11:59:56;;;;;;;0.30;0.30;;;8.90;99.90;;;;;;5030367;28;20575;-67
2023/12/23 12:02:24;;;;;;;0.82;0.82;;;8.90;99.90;;;;;;5032028;28;20743;-68
2023/12/23 12:04:51;;;;;;;0.55;0.55;;;8.90;99.90;;;;;;5033095;28;20301;-68
2023/12/23 12:07:19;;;;;;;0.40;0.40;;;8.90;99.90;;;;;;5033755;28;20651;-68
2023/12/23 12:09:46;;;;;;;0.50;0.50;;;8.90;99.90;;;;;;5033535;28;20203;-68
2023/12/23 12:12:13;;;;;;;0.47;0.45;;;9.00;99.90;;;;;;5033440;28;20210;-68
2023/12/23 12:14:40;;;;;;;1.17;0.70;;;9.00;99.90;;;;;;5080169;22;20234;-64
2023/12/23 12:17:07;;;;;;;0.65;0.57;;;9.00;99.90;;;;;;5056987;28;20452;-64
2023/12/23 12:19:36;;;;;;;0.45;0.45;;;9.00;99.90;;;;;;5051415;28;20535;-64
2023/12/23 12:22:04;;;;;;;0.40;0.40;;;9.10;99.90;;;;;;5055443;28;20301;-64
2023/12/23 12:24:32;;;;;;;0.55;0.55;;;9.00;99.90;;;;;;5054844;28;20226;-64
2023/12/23 12:26:58;;;;;;;0.40;0.40;;;9.00;99.90;;;;;;5058353;28;20733;-63
2023/12/23 12:29:26;;;;;;;0.40;0.40;;;9.10;99.90;;;;;;5057204;28;20297;-64
2023/12/23 12:31:53;;;;;;;0.70;0.70;;;9.10;99.90;;;;;;5061134;28;20210;-64
2023/12/23 12:34:21;;;;;;;0.68;0.68;;;9.00;99.90;;;;;;5058310;28;20786;-64
2023/12/23 12:36:51;;;;;;;0.60;0.60;;;9.10;99.90;;;;;;5056351;28;20298;-64
2023/12/23 12:39:19;;;;;;;0.60;0.60;;;9.10;99.90;;;;;;5060557;28;20563;-64
2023/12/23 12:41:46;;;;;;;0.50;0.50;;;9.10;99.90;;;;;;5057360;28;20453;-64
2023/12/23 12:44:12;;;;;;;0.73;0.50;;;9.10;99.90;;;;;;5063226;28;20312;-64
2023/12/23 12:46:39;;;;;;;0.77;0.70;;;9.10;99.90;;;;;;5051385;28;20533;-64
2023/12/23 12:49:07;;;;;;;0.47;0.47;;;9.10;99.90;;;;;;5057251;28;20444;-64
2023/12/23 12:51:35;;;;;;;1.20;0.70;;;9.20;99.90;;;;;;5060412;28;20294;-64
2023/12/23 12:54:05;;;;;;;1.98;0.88;;;9.20;99.90;;;;;;5058677;28;20229;-64
2023/12/23 12:56:32;;;;;;;0.90;0.90;;;9.20;99.90;;;;;;5060929;28;20285;-64
2023/12/23 12:58:59;;;;;;;0.50;0.50;;;9.20;99.90;;;;;;5060733;28;20527;-64